Terminal Aerodrome Forecast
Issued by NWS

Home | Current Version | Previous Version | Text Only | Print | Product List | Glossary On
Versions: 1 2 3 4 5 6 7 8 9 10 11 12 13 14 15 16 17 18 19 20 21 22
000
FTUS43 KIND 020950 AAA
TAFHUF
TAF AMD
KHUF 020950Z 0210/0306 29005KT P6SM OVC022
      TEMPO 0210/0213 1/2SM FG VV001
     FM021500 34007KT P6SM VCSH OVC012
     FM022100 32007KT P6SM VCSH OVC035
     FM030300 34004KT 4SM BR VCSH OVC025=

USA.gov is the U.S. government's official web portal to all federal, state and local government web resources and services.